sensor_id;sensor_type;location;lat;lon;timestamp;pressure;altitude;pressure_sealevel;temperature;humidity
65832;BME280;52593;42.648;23.332;2024-02-26T00:02:06;94094.53;;;6.96;97.19
65832;BME280;52593;42.648;23.332;2024-02-26T00:04:32;94080.59;;;6.94;97.50
65832;BME280;52593;42.648;23.332;2024-02-26T00:06:57;94098.41;;;6.94;97.66
65832;BME280;52593;42.648;23.332;2024-02-26T00:09:23;94088.28;;;6.81;98.11
65832;BME280;52593;42.648;23.332;2024-02-26T00:11:49;94090.50;;;6.69;97.75
65832;BME280;52593;42.648;23.332;2024-02-26T00:14:14;94087.66;;;6.71;98.04
65832;BME280;52593;42.648;23.332;2024-02-26T00:16:40;94084.25;;;6.93;96.71
65832;BME280;52593;42.648;23.332;2024-02-26T00:19:07;94083.13;;;6.88;96.74
65832;BME280;52593;42.648;23.332;2024-02-26T00:21:32;94079.53;;;6.72;96.65
65832;BME280;52593;42.648;23.332;2024-02-26T00:23:58;94087.00;;;6.77;96.83
65832;BME280;52593;42.648;23.332;2024-02-26T00:26:23;94083.84;;;6.65;98.20
65832;BME280;52593;42.648;23.332;2024-02-26T00:28:48;94080.72;;;6.53;99.14
65832;BME280;52593;42.648;23.332;2024-02-26T00:31:14;94083.47;;;6.76;98.62
65832;BME280;52593;42.648;23.332;2024-02-26T00:33:40;94080.13;;;6.91;97.57
65832;BME280;52593;42.648;23.332;2024-02-26T00:36:05;94076.09;;;6.95;97.36
65832;BME280;52593;42.648;23.332;2024-02-26T00:38:31;94066.94;;;6.97;97.07
65832;BME280;52593;42.648;23.332;2024-02-26T00:40:56;94057.97;;;6.99;96.99
65832;BME280;52593;42.648;23.332;2024-02-26T00:43:22;94058.66;;;6.92;97.64
65832;BME280;52593;42.648;23.332;2024-02-26T00:45:47;94057.03;;;6.83;98.73
65832;BME280;52593;42.648;23.332;2024-02-26T00:48:13;94056.19;;;6.91;99.14
65832;BME280;52593;42.648;23.332;2024-02-26T00:50:39;94049.94;;;7.07;97.62
65832;BME280;52593;42.648;23.332;2024-02-26T00:53:05;94054.28;;;7.00;99.04
65832;BME280;52593;42.648;23.332;2024-02-26T00:55:31;94052.66;;;6.99;98.70
65832;BME280;52593;42.648;23.332;2024-02-26T00:57:56;94045.25;;;7.09;98.18
65832;BME280;52593;42.648;23.332;2024-02-26T01:00:22;94037.63;;;7.06;99.03
65832;BME280;52593;42.648;23.332;2024-02-26T01:02:47;94032.50;;;7.04;99.75
65832;BME280;52593;42.648;23.332;2024-02-26T01:05:14;94032.81;;;7.09;99.27
65832;BME280;52593;42.648;23.332;2024-02-26T01:07:39;94038.09;;;7.41;98.77
65832;BME280;52593;42.648;23.332;2024-02-26T01:10:06;94036.09;;;7.43;97.95
65832;BME280;52593;42.648;23.332;2024-02-26T01:12:33;94029.34;;;7.32;98.09
65832;BME280;52593;42.648;23.332;2024-02-26T01:14:59;94035.59;;;7.39;98.28
65832;BME280;52593;42.648;23.332;2024-02-26T01:17:24;94032.91;;;7.47;97.73
65832;BME280;52593;42.648;23.332;2024-02-26T01:19:50;94037.03;;;7.50;97.45
65832;BME280;52593;42.648;23.332;2024-02-26T01:22:16;94040.00;;;7.32;98.77
65832;BME280;52593;42.648;23.332;2024-02-26T01:24:41;94026.44;;;7.42;98.75
65832;BME280;52593;42.648;23.332;2024-02-26T01:27:07;94032.38;;;7.52;98.49
65832;BME280;52593;42.648;23.332;2024-02-26T01:29:35;94029.19;;;7.34;98.56
65832;BME280;52593;42.648;23.332;2024-02-26T01:32:01;94030.09;;;7.41;99.50
65832;BME280;52593;42.648;23.332;2024-02-26T01:34:27;94023.19;;;7.55;99.18
65832;BME280;52593;42.648;23.332;2024-02-26T01:36:52;94032.59;;;7.65;98.25
65832;BME280;52593;42.648;23.332;2024-02-26T01:39:18;94027.84;;;7.76;97.27
65832;BME280;52593;42.648;23.332;2024-02-26T01:41:43;94021.72;;;7.75;96.91
65832;BME280;52593;42.648;23.332;2024-02-26T01:44:12;94023.25;;;7.70;96.50
65832;BME280;52593;42.648;23.332;2024-02-26T01:46:38;94027.22;;;7.50;96.73
65832;BME280;52593;42.648;23.332;2024-02-26T01:49:04;94028.59;;;7.15;98.48
65832;BME280;52593;42.648;23.332;2024-02-26T01:51:30;94021.13;;;7.19;99.27
65832;BME280;52593;42.648;23.332;2024-02-26T01:53:58;94011.22;;;7.04;99.62
65832;BME280;52593;42.648;23.332;2024-02-26T01:56:24;94022.56;;;7.21;99.97
65832;BME280;52593;42.648;23.332;2024-02-26T01:58:55;94012.69;;;7.38;99.50
65832;BME280;52593;42.648;23.332;2024-02-26T02:01:22;94008.72;;;7.34;99.32
65832;BME280;52593;42.648;23.332;2024-02-26T02:03:50;94005.69;;;7.37;97.96
65832;BME280;52593;42.648;23.332;2024-02-26T02:06:16;94016.34;;;7.37;97.90
65832;BME280;52593;42.648;23.332;2024-02-26T02:08:42;94012.88;;;7.75;96.65
65832;BME280;52593;42.648;23.332;2024-02-26T02:11:08;94001.00;;;7.62;96.61
65832;BME280;52593;42.648;23.332;2024-02-26T02:13:37;94009.75;;;7.71;96.20
65832;BME280;52593;42.648;23.332;2024-02-26T02:16:03;94005.50;;;7.62;96.50
65832;BME280;52593;42.648;23.332;2024-02-26T02:18:28;94006.28;;;7.47;96.30
65832;BME280;52593;42.648;23.332;2024-02-26T02:20:54;94018.75;;;7.24;96.88
65832;BME280;52593;42.648;23.332;2024-02-26T02:23:21;94024.94;;;7.16;98.60
65832;BME280;52593;42.648;23.332;2024-02-26T02:25:47;94017.59;;;7.18;99.10
65832;BME280;52593;42.648;23.332;2024-02-26T02:28:13;93999.66;;;7.43;97.89
65832;BME280;52593;42.648;23.332;2024-02-26T02:30:39;94003.19;;;7.59;96.04
65832;BME280;52593;42.648;23.332;2024-02-26T02:33:05;94002.31;;;7.20;97.74
65832;BME280;52593;42.648;23.332;2024-02-26T02:35:30;94008.16;;;7.16;98.76
65832;BME280;52593;42.648;23.332;2024-02-26T02:37:57;94020.16;;;7.11;99.99
65832;BME280;52593;42.648;23.332;2024-02-26T02:40:22;94022.47;;;7.38;99.88
65832;BME280;52593;42.648;23.332;2024-02-26T02:42:48;94001.50;;;7.43;98.50
65832;BME280;52593;42.648;23.332;2024-02-26T02:45:13;94013.56;;;7.54;98.41
65832;BME280;52593;42.648;23.332;2024-02-26T02:47:39;93996.53;;;7.63;97.18
65832;BME280;52593;42.648;23.332;2024-02-26T02:50:05;94014.50;;;7.61;96.73
65832;BME280;52593;42.648;23.332;2024-02-26T02:52:30;94025.19;;;7.76;95.96
65832;BME280;52593;42.648;23.332;2024-02-26T02:54:56;94028.81;;;7.60;96.42
65832;BME280;52593;42.648;23.332;2024-02-26T02:57:21;94019.81;;;7.61;96.90
65832;BME280;52593;42.648;23.332;2024-02-26T02:59:47;94015.28;;;7.46;97.35
65832;BME280;52593;42.648;23.332;2024-02-26T03:02:13;94010.31;;;7.43;98.29
65832;BME280;52593;42.648;23.332;2024-02-26T03:04:38;94021.03;;;7.58;97.94
65832;BME280;52593;42.648;23.332;2024-02-26T03:07:04;94023.00;;;7.56;97.38
65832;BME280;52593;42.648;23.332;2024-02-26T03:09:29;94024.41;;;7.52;97.03
65832;BME280;52593;42.648;23.332;2024-02-26T03:11:55;94035.97;;;7.36;98.42
65832;BME280;52593;42.648;23.332;2024-02-26T03:14:20;94028.66;;;7.38;99.23
65832;BME280;52593;42.648;23.332;2024-02-26T03:16:46;94023.53;;;7.52;98.18
65832;BME280;52593;42.648;23.332;2024-02-26T03:19:14;94029.91;;;7.50;98.53
65832;BME280;52593;42.648;23.332;2024-02-26T03:21:40;94020.69;;;7.53;98.02
65832;BME280;52593;42.648;23.332;2024-02-26T03:24:06;94009.50;;;7.43;98.35
65832;BME280;52593;42.648;23.332;2024-02-26T03:26:35;94005.09;;;7.27;99.28
65832;BME280;52593;42.648;23.332;2024-02-26T03:29:00;94004.38;;;7.33;100.00
65832;BME280;52593;42.648;23.332;2024-02-26T03:31:27;94000.63;;;7.50;98.84
65832;BME280;52593;42.648;23.332;2024-02-26T03:33:53;93990.25;;;7.32;98.52
65832;BME280;52593;42.648;23.332;2024-02-26T03:36:18;94012.38;;;7.33;99.18
65832;BME280;52593;42.648;23.332;2024-02-26T03:38:44;93999.69;;;7.12;100.00
65832;BME280;52593;42.648;23.332;2024-02-26T03:41:10;94008.59;;;6.96;100.00
65832;BME280;52593;42.648;23.332;2024-02-26T03:43:35;94002.41;;;7.04;100.00
65832;BME280;52593;42.648;23.332;2024-02-26T03:46:01;94004.56;;;7.31;100.00
65832;BME280;52593;42.648;23.332;2024-02-26T03:48:26;93994.53;;;7.10;100.00
65832;BME280;52593;42.648;23.332;2024-02-26T03:50:51;94001.28;;;7.21;100.00
65832;BME280;52593;42.648;23.332;2024-02-26T03:53:17;93993.81;;;7.25;100.00
65832;BME280;52593;42.648;23.332;2024-02-26T03:55:43;93992.75;;;7.34;100.00
65832;BME280;52593;42.648;23.332;2024-02-26T03:58:08;94001.47;;;7.20;100.00
65832;BME280;52593;42.648;23.332;2024-02-26T04:00:34;94006.69;;;7.13;100.00
65832;BME280;52593;42.648;23.332;2024-02-26T04:02:59;93999.28;;;7.00;100.00
65832;BME280;52593;42.648;23.332;2024-02-26T04:05:25;93997.66;;;6.91;100.00
65832;BME280;52593;42.648;23.332;2024-02-26T04:07:50;93994.16;;;6.90;100.00
65832;BME280;52593;42.648;23.332;2024-02-26T04:10:16;93998.88;;;7.11;100.00
65832;BME280;52593;42.648;23.332;2024-02-26T04:12:42;93985.84;;;7.17;100.00
65832;BME280;52593;42.648;23.332;2024-02-26T04:15:08;93984.81;;;7.26;100.00
65832;BME280;52593;42.648;23.332;2024-02-26T04:17:34;93972.97;;;7.28;100.00
65832;BME280;52593;42.648;23.332;2024-02-26T04:19:59;93978.63;;;7.34;99.88
65832;BME280;52593;42.648;23.332;2024-02-26T04:22:25;93979.84;;;7.46;98.96
65832;BME280;52593;42.648;23.332;2024-02-26T04:24:50;93984.22;;;7.39;98.86
65832;BME280;52593;42.648;23.332;2024-02-26T04:27:16;93970.28;;;7.37;99.24
65832;BME280;52593;42.648;23.332;2024-02-26T04:29:41;93973.84;;;7.44;98.55
65832;BME280;52593;42.648;23.332;2024-02-26T04:32:07;93974.97;;;7.49;98.80
65832;BME280;52593;42.648;23.332;2024-02-26T04:34:32;93956.63;;;7.55;97.74
65832;BME280;52593;42.648;23.332;2024-02-26T04:36:58;93977.00;;;7.47;97.98
65832;BME280;52593;42.648;23.332;2024-02-26T04:39:23;93965.34;;;7.25;98.50
65832;BME280;52593;42.648;23.332;2024-02-26T04:41:49;93969.03;;;7.24;99.03
65832;BME280;52593;42.648;23.332;2024-02-26T04:44:14;93982.56;;;7.38;98.63
65832;BME280;52593;42.648;23.332;2024-02-26T04:46:40;93971.06;;;7.60;97.91
65832;BME280;52593;42.648;23.332;2024-02-26T04:49:05;93970.06;;;7.61;97.56
65832;BME280;52593;42.648;23.332;2024-02-26T04:51:31;93973.31;;;7.48;98.16
65832;BME280;52593;42.648;23.332;2024-02-26T04:53:56;93979.72;;;7.16;99.50
65832;BME280;52593;42.648;23.332;2024-02-26T04:56:22;93976.53;;;7.21;100.00
65832;BME280;52593;42.648;23.332;2024-02-26T04:58:47;93985.53;;;7.43;100.00
65832;BME280;52593;42.648;23.332;2024-02-26T05:01:13;93984.22;;;7.39;99.85
65832;BME280;52593;42.648;23.332;2024-02-26T05:03:39;93993.47;;;7.20;100.00
65832;BME280;52593;42.648;23.332;2024-02-26T05:06:05;93999.56;;;7.05;100.00
65832;BME280;52593;42.648;23.332;2024-02-26T05:08:30;94008.69;;;7.11;100.00
65832;BME280;52593;42.648;23.332;2024-02-26T05:10:56;94005.66;;;6.91;100.00
65832;BME280;52593;42.648;23.332;2024-02-26T05:13:22;94020.50;;;6.77;100.00
65832;BME280;52593;42.648;23.332;2024-02-26T05:15:47;94008.50;;;6.81;100.00
65832;BME280;52593;42.648;23.332;2024-02-26T05:18:15;94019.59;;;6.93;100.00
65832;BME280;52593;42.648;23.332;2024-02-26T05:20:40;94021.56;;;6.99;100.00
65832;BME280;52593;42.648;23.332;2024-02-26T05:23:06;94024.22;;;6.99;100.00
65832;BME280;52593;42.648;23.332;2024-02-26T05:25:31;94023.03;;;7.02;100.00
65832;BME280;52593;42.648;23.332;2024-02-26T05:27:57;94021.66;;;7.06;100.00
65832;BME280;52593;42.648;23.332;2024-02-26T05:30:22;94022.38;;;7.00;100.00
65832;BME280;52593;42.648;23.332;2024-02-26T05:32:48;94037.16;;;7.34;100.00
65832;BME280;52593;42.648;23.332;2024-02-26T05:35:13;94044.19;;;7.26;99.46
65832;BME280;52593;42.648;23.332;2024-02-26T05:37:40;94046.03;;;7.26;100.00
65832;BME280;52593;42.648;23.332;2024-02-26T05:40:06;94045.59;;;7.14;100.00
65832;BME280;52593;42.648;23.332;2024-02-26T05:42:31;94054.09;;;7.09;100.00
65832;BME280;52593;42.648;23.332;2024-02-26T05:44:57;94039.34;;;6.99;100.00
65832;BME280;52593;42.648;23.332;2024-02-26T05:47:23;94050.81;;;6.99;100.00
65832;BME280;52593;42.648;23.332;2024-02-26T05:49:48;94052.78;;;7.05;100.00
65832;BME280;52593;42.648;23.332;2024-02-26T05:52:14;94048.28;;;7.37;99.92
65832;BME280;52593;42.648;23.332;2024-02-26T05:54:40;94050.13;;;7.60;97.12
65832;BME280;52593;42.648;23.332;2024-02-26T05:57:05;94047.28;;;7.38;98.14
65832;BME280;52593;42.648;23.332;2024-02-26T05:59:31;94043.88;;;7.21;100.00
65832;BME280;52593;42.648;23.332;2024-02-26T06:01:56;94049.44;;;7.35;99.17
65832;BME280;52593;42.648;23.332;2024-02-26T06:04:22;94058.28;;;7.35;99.28
65832;BME280;52593;42.648;23.332;2024-02-26T06:06:47;94053.94;;;7.34;99.57
65832;BME280;52593;42.648;23.332;2024-02-26T06:09:13;94058.50;;;7.48;98.75
65832;BME280;52593;42.648;23.332;2024-02-26T06:11:38;94051.47;;;7.56;98.55
65832;BME280;52593;42.648;23.332;2024-02-26T06:14:04;94066.66;;;7.47;97.64
65832;BME280;52593;42.648;23.332;2024-02-26T06:16:30;94072.75;;;7.32;99.37
65832;BME280;52593;42.648;23.332;2024-02-26T06:18:56;94061.66;;;7.29;99.33
65832;BME280;52593;42.648;23.332;2024-02-26T06:21:22;94075.78;;;7.29;99.21
65832;BME280;52593;42.648;23.332;2024-02-26T06:23:47;94070.75;;;7.58;98.71
65832;BME280;52593;42.648;23.332;2024-02-26T06:26:13;94057.09;;;7.38;98.48
65832;BME280;52593;42.648;23.332;2024-02-26T06:28:38;94062.53;;;7.44;98.88
65832;BME280;52593;42.648;23.332;2024-02-26T06:31:05;94058.34;;;7.73;97.18
65832;BME280;52593;42.648;23.332;2024-02-26T06:33:31;94050.47;;;7.80;96.06
65832;BME280;52593;42.648;23.332;2024-02-26T06:35:57;94052.34;;;7.94;95.68
65832;BME280;52593;42.648;23.332;2024-02-26T06:38:22;94060.47;;;8.01;94.65
65832;BME280;52593;42.648;23.332;2024-02-26T06:40:48;94055.31;;;7.99;94.46
65832;BME280;52593;42.648;23.332;2024-02-26T06:43:14;94069.72;;;8.05;94.04
65832;BME280;52593;42.648;23.332;2024-02-26T06:45:39;94063.84;;;7.95;94.06
65832;BME280;52593;42.648;23.332;2024-02-26T06:48:05;94057.72;;;8.09;91.61
65832;BME280;52593;42.648;23.332;2024-02-26T06:50:31;94062.78;;;8.04;92.21
65832;BME280;52593;42.648;23.332;2024-02-26T06:52:56;94059.69;;;7.92;92.87
65832;BME280;52593;42.648;23.332;2024-02-26T06:55:22;94061.91;;;8.03;92.58
65832;BME280;52593;42.648;23.332;2024-02-26T06:57:47;94045.13;;;8.03;91.42
65832;BME280;52593;42.648;23.332;2024-02-26T07:00:13;94051.38;;;7.72;93.75
65832;BME280;52593;42.648;23.332;2024-02-26T07:02:42;94061.00;;;7.96;93.54
65832;BME280;52593;42.648;23.332;2024-02-26T07:05:07;94058.00;;;8.14;92.08
65832;BME280;52593;42.648;23.332;2024-02-26T07:07:33;94052.47;;;8.01;92.37
65832;BME280;52593;42.648;23.332;2024-02-26T07:09:58;94071.22;;;8.08;93.15
65832;BME280;52593;42.648;23.332;2024-02-26T07:12:24;94074.19;;;8.28;93.26
65832;BME280;52593;42.648;23.332;2024-02-26T07:14:49;94058.28;;;8.19;92.34
65832;BME280;52593;42.648;23.332;2024-02-26T07:17:16;94070.50;;;8.14;92.58
65832;BME280;52593;42.648;23.332;2024-02-26T07:19:42;94067.94;;;8.20;92.57
65832;BME280;52593;42.648;23.332;2024-02-26T07:22:08;94074.47;;;8.18;92.74
65832;BME280;52593;42.648;23.332;2024-02-26T07:24:33;94070.72;;;8.42;91.45
65832;BME280;52593;42.648;23.332;2024-02-26T07:26:59;94071.19;;;8.31;91.03
65832;BME280;52593;42.648;23.332;2024-02-26T07:29:24;94065.00;;;8.53;90.59
65832;BME280;52593;42.648;23.332;2024-02-26T07:31:50;94059.75;;;8.75;89.37
65832;BME280;52593;42.648;23.332;2024-02-26T07:34:15;94053.66;;;8.51;90.26
65832;BME280;52593;42.648;23.332;2024-02-26T07:36:41;94060.84;;;8.66;89.78
65832;BME280;52593;42.648;23.332;2024-02-26T07:39:06;94071.53;;;8.81;89.01
65832;BME280;52593;42.648;23.332;2024-02-26T07:41:32;94072.50;;;9.09;87.75
65832;BME280;52593;42.648;23.332;2024-02-26T07:43:58;94070.13;;;9.00;88.05
65832;BME280;52593;42.648;23.332;2024-02-26T07:46:23;94071.41;;;9.04;87.69
65832;BME280;52593;42.648;23.332;2024-02-26T07:48:48;94073.34;;;9.10;87.17
65832;BME280;52593;42.648;23.332;2024-02-26T07:51:15;94062.47;;;9.12;87.59
65832;BME280;52593;42.648;23.332;2024-02-26T07:53:40;94065.06;;;9.41;86.75
65832;BME280;52593;42.648;23.332;2024-02-26T07:56:06;94074.84;;;9.71;85.87
65832;BME280;52593;42.648;23.332;2024-02-26T07:58:35;94057.41;;;9.96;83.57
65832;BME280;52593;42.648;23.332;2024-02-26T08:01:00;94055.78;;;9.95;83.50
65832;BME280;52593;42.648;23.332;2024-02-26T08:03:26;94052.56;;;10.07;81.91
65832;BME280;52593;42.648;23.332;2024-02-26T08:05:52;94051.81;;;9.91;82.78
65832;BME280;52593;42.648;23.332;2024-02-26T08:08:17;94045.56;;;10.06;82.51
65832;BME280;52593;42.648;23.332;2024-02-26T08:10:43;94056.75;;;10.16;82.08
65832;BME280;52593;42.648;23.332;2024-02-26T08:13:09;94058.44;;;10.17;81.92
65832;BME280;52593;42.648;23.332;2024-02-26T08:15:37;94052.34;;;10.30;81.24
65832;BME280;52593;42.648;23.332;2024-02-26T08:18:03;94051.91;;;10.26;81.50
65832;BME280;52593;42.648;23.332;2024-02-26T08:20:32;94049.84;;;10.50;80.56
65832;BME280;52593;42.648;23.332;2024-02-26T08:22:57;94055.00;;;10.51;79.42
65832;BME280;52593;42.648;23.332;2024-02-26T08:25:24;94053.72;;;10.47;79.49
65832;BME280;52593;42.648;23.332;2024-02-26T08:27:49;94053.72;;;10.47;80.18
65832;BME280;52593;42.648;23.332;2024-02-26T08:30:15;94057.19;;;10.69;79.25
65832;BME280;52593;42.648;23.332;2024-02-26T08:32:45;94051.47;;;10.79;78.85
65832;BME280;52593;42.648;23.332;2024-02-26T08:35:11;94045.41;;;10.99;77.82
65832;BME280;52593;42.648;23.332;2024-02-26T08:37:37;94036.34;;;11.00;77.21
65832;BME280;52593;42.648;23.332;2024-02-26T08:40:02;94048.25;;;10.91;76.74
65832;BME280;52593;42.648;23.332;2024-02-26T08:42:29;94046.41;;;10.91;76.26
65832;BME280;52593;42.648;23.332;2024-02-26T08:44:55;94044.13;;;10.88;76.96
65832;BME280;52593;42.648;23.332;2024-02-26T08:47:20;94042.34;;;11.02;76.00
65832;BME280;52593;42.648;23.332;2024-02-26T08:49:46;94040.66;;;11.01;76.27
65832;BME280;52593;42.648;23.332;2024-02-26T08:52:12;94048.09;;;11.05;76.28
65832;BME280;52593;42.648;23.332;2024-02-26T08:54:37;94042.13;;;11.03;75.92
65832;BME280;52593;42.648;23.332;2024-02-26T08:57:03;94049.59;;;11.15;75.74
65832;BME280;52593;42.648;23.332;2024-02-26T08:59:29;94048.84;;;11.28;75.20
65832;BME280;52593;42.648;23.332;2024-02-26T09:01:54;94047.22;;;11.40;75.38
65832;BME280;52593;42.648;23.332;2024-02-26T09:04:20;94041.28;;;11.45;75.27
65832;BME280;52593;42.648;23.332;2024-02-26T09:06:46;94035.84;;;11.31;75.21
65832;BME280;52593;42.648;23.332;2024-02-26T09:09:11;94044.19;;;11.56;74.76
65832;BME280;52593;42.648;23.332;2024-02-26T09:11:37;94037.19;;;11.62;74.32
65832;BME280;52593;42.648;23.332;2024-02-26T09:14:02;94033.69;;;11.55;73.02
65832;BME280;52593;42.648;23.332;2024-02-26T09:16:29;94032.44;;;11.51;72.89
65832;BME280;52593;42.648;23.332;2024-02-26T09:18:55;94038.19;;;11.54;73.75
65832;BME280;52593;42.648;23.332;2024-02-26T09:21:20;94044.81;;;11.52;73.76
65832;BME280;52593;42.648;23.332;2024-02-26T09:23:52;94036.38;;;11.68;73.32
65832;BME280;52593;42.648;23.332;2024-02-26T09:26:17;94031.25;;;11.80;72.29
65832;BME280;52593;42.648;23.332;2024-02-26T09:28:44;94023.38;;;11.65;72.05
65832;BME280;52593;42.648;23.332;2024-02-26T09:31:09;94024.44;;;11.77;71.33
65832;BME280;52593;42.648;23.332;2024-02-26T09:33:35;94027.13;;;11.84;71.85
65832;BME280;52593;42.648;23.332;2024-02-26T09:36:01;94027.53;;;11.88;71.30
65832;BME280;52593;42.648;23.332;2024-02-26T09:38:29;94019.09;;;11.91;71.29
65832;BME280;52593;42.648;23.332;2024-02-26T09:40:57;94028.63;;;12.13;70.49
65832;BME280;52593;42.648;23.332;2024-02-26T09:43:23;94019.97;;;12.25;69.77
65832;BME280;52593;42.648;23.332;2024-02-26T09:45:54;94021.41;;;12.27;69.69
65832;BME280;52593;42.648;23.332;2024-02-26T09:48:22;94024.31;;;12.19;69.94
65832;BME280;52593;42.648;23.332;2024-02-26T09:50:49;94021.19;;;12.36;69.53
65832;BME280;52593;42.648;23.332;2024-02-26T09:53:14;94024.31;;;12.26;69.32
65832;BME280;52593;42.648;23.332;2024-02-26T09:55:40;94002.81;;;12.32;68.95
65832;BME280;52593;42.648;23.332;2024-02-26T09:58:06;94018.50;;;12.49;68.72
65832;BME280;52593;42.648;23.332;2024-02-26T10:00:37;94012.75;;;12.45;68.88
65832;BME280;52593;42.648;23.332;2024-02-26T10:03:05;94006.97;;;12.35;69.15
65832;BME280;52593;42.648;23.332;2024-02-26T10:05:35;94012.31;;;12.48;69.46
65832;BME280;52593;42.648;23.332;2024-02-26T10:08:04;94009.22;;;12.65;68.90
65832;BME280;52593;42.648;23.332;2024-02-26T10:10:30;94005.69;;;12.64;68.36
65832;BME280;52593;42.648;23.332;2024-02-26T10:12:59;94002.38;;;12.69;67.20
65832;BME280;52593;42.648;23.332;2024-02-26T10:15:25;93998.25;;;12.73;67.12
65832;BME280;52593;42.648;23.332;2024-02-26T10:17:51;93992.03;;;12.79;67.12
65832;BME280;52593;42.648;23.332;2024-02-26T10:20:17;93989.53;;;12.91;66.55
65832;BME280;52593;42.648;23.332;2024-02-26T10:22:46;93993.47;;;12.82;66.43
65832;BME280;52593;42.648;23.332;2024-02-26T10:25:12;93989.94;;;12.88;66.62
65832;BME280;52593;42.648;23.332;2024-02-26T10:27:40;93984.19;;;12.78;66.70
65832;BME280;52593;42.648;23.332;2024-02-26T10:30:17;93984.97;;;12.92;66.57
65832;BME280;52593;42.648;23.332;2024-02-26T10:32:46;93977.72;;;12.92;66.46
65832;BME280;52593;42.648;23.332;2024-02-26T10:35:13;93964.16;;;12.80;66.54
65832;BME280;52593;42.648;23.332;2024-02-26T10:37:42;93970.16;;;12.76;65.92
65832;BME280;52593;42.648;23.332;2024-02-26T10:40:14;93973.41;;;12.84;65.48
65832;BME280;52593;42.648;23.332;2024-02-26T10:42:41;93969.94;;;12.77;65.26
65832;BME280;52593;42.648;23.332;2024-02-26T10:45:08;93966.19;;;12.78;64.51
65832;BME280;52593;42.648;23.332;2024-02-26T10:47:37;93973.06;;;12.74;65.19
65832;BME280;52593;42.648;23.332;2024-02-26T10:50:05;93965.59;;;12.76;65.00
65832;BME280;52593;42.648;23.332;2024-02-26T10:52:35;93969.31;;;12.75;65.11
65832;BME280;52593;42.648;23.332;2024-02-26T10:55:05;93967.00;;;12.85;65.12
65832;BME280;52593;42.648;23.332;2024-02-26T10:57:36;93959.34;;;12.89;65.00
65832;BME280;52593;42.648;23.332;2024-02-26T11:00:04;93965.50;;;13.03;64.40
65832;BME280;52593;42.648;23.332;2024-02-26T11:02:48;93965.06;;;13.13;63.54
65832;BME280;52593;42.648;23.332;2024-02-26T11:05:18;93961.94;;;13.09;64.17
65832;BME280;52593;42.648;23.332;2024-02-26T11:07:44;93962.31;;;13.26;63.48
65832;BME280;52593;42.648;23.332;2024-02-26T11:10:11;93963.81;;;13.09;62.45
65832;BME280;52593;42.648;23.332;2024-02-26T11:12:38;93959.47;;;13.14;62.42
65832;BME280;52593;42.648;23.332;2024-02-26T11:15:04;93969.59;;;13.12;62.88
65832;BME280;52593;42.648;23.332;2024-02-26T11:17:31;93960.50;;;13.20;62.87
65832;BME280;52593;42.648;23.332;2024-02-26T11:19:58;93957.63;;;13.08;62.58
65832;BME280;52593;42.648;23.332;2024-02-26T11:22:27;93963.81;;;13.09;62.63
65832;BME280;52593;42.648;23.332;2024-02-26T11:24:55;93956.78;;;13.08;63.04
65832;BME280;52593;42.648;23.332;2024-02-26T11:27:36;93963.38;;;13.18;62.16
65832;BME280;52593;42.648;23.332;2024-02-26T11:30:05;93958.84;;;13.12;62.68
65832;BME280;52593;42.648;23.332;2024-02-26T11:32:34;93953.47;;;13.19;62.63
65832;BME280;52593;42.648;23.332;2024-02-26T11:35:00;93957.91;;;13.32;62.36
65832;BME280;52593;42.648;23.332;2024-02-26T11:37:26;93946.75;;;13.42;61.79
65832;BME280;52593;42.648;23.332;2024-02-26T11:39:52;93941.13;;;13.50;61.22
65832;BME280;52593;42.648;23.332;2024-02-26T11:42:23;93944.84;;;13.49;61.26
65832;BME280;52593;42.648;23.332;2024-02-26T11:44:49;93951.13;;;13.36;61.68
65832;BME280;52593;42.648;23.332;2024-02-26T11:47:20;93947.00;;;13.27;61.78
65832;BME280;52593;42.648;23.332;2024-02-26T11:49:46;93951.78;;;13.25;61.95
65832;BME280;52593;42.648;23.332;2024-02-26T11:52:13;93933.56;;;13.33;61.77
65832;BME280;52593;42.648;23.332;2024-02-26T11:54:40;93943.06;;;13.29;62.12
65832;BME280;52593;42.648;23.332;2024-02-26T11:57:27;93943.84;;;13.43;60.88
65832;BME280;52593;42.648;23.332;2024-02-26T12:00:12;93938.59;;;13.55;59.70
65832;BME280;52593;42.648;23.332;2024-02-26T12:05:10;93934.66;;;13.58;58.27
65832;BME280;52593;42.648;23.332;2024-02-26T12:07:54;93943.59;;;13.77;57.60
65832;BME280;52593;42.648;23.332;2024-02-26T12:10:27;93952.03;;;13.87;57.94
65832;BME280;52593;42.648;23.332;2024-02-26T12:15:23;93943.72;;;13.63;58.63
65832;BME280;52593;42.648;23.332;2024-02-26T12:17:49;93946.78;;;13.67;58.67
65832;BME280;52593;42.648;23.332;2024-02-26T12:20:16;93941.56;;;13.72;57.77
65832;BME280;52593;42.648;23.332;2024-02-26T12:22:45;93938.34;;;13.63;58.36
65832;BME280;52593;42.648;23.332;2024-02-26T12:25:14;93942.78;;;13.83;57.59
65832;BME280;52593;42.648;23.332;2024-02-26T12:27:40;93938.75;;;13.92;57.51
65832;BME280;52593;42.648;23.332;2024-02-26T12:30:05;93937.66;;;14.00;56.46
65832;BME280;52593;42.648;23.332;2024-02-26T12:32:32;93950.00;;;14.07;56.02
65832;BME280;52593;42.648;23.332;2024-02-26T12:34:58;93944.13;;;14.17;55.07
65832;BME280;52593;42.648;23.332;2024-02-26T12:37:25;93947.84;;;14.16;55.71
65832;BME280;52593;42.648;23.332;2024-02-26T12:39:50;93946.63;;;14.37;54.35
65832;BME280;52593;42.648;23.332;2024-02-26T12:42:16;93952.72;;;14.51;54.47
65832;BME280;52593;42.648;23.332;2024-02-26T12:44:41;93944.03;;;14.49;54.04
65832;BME280;52593;42.648;23.332;2024-02-26T12:47:07;93950.72;;;14.65;53.45
65832;BME280;52593;42.648;23.332;2024-02-26T12:49:33;93945.56;;;14.82;52.71
65832;BME280;52593;42.648;23.332;2024-02-26T12:51:59;93940.13;;;14.70;53.30
65832;BME280;52593;42.648;23.332;2024-02-26T12:54:31;93943.19;;;14.74;52.68
65832;BME280;52593;42.648;23.332;2024-02-26T12:57:00;93936.09;;;14.79;51.91